Time;durP1;ratioP1;P1;durP2;ratioP2;P2;SDS_P1;SDS_P2;PMS_P1;PMS_P2;Temp;Humidity;BMP_temperature;BMP_pressure;BME280_temperature;BME280_humidity;BME280_pressure;Samples;Min_cycle;Max_cycle;Signal;HPM_P1;HPM_P2
2021/10/28 00:13:43;;;;;;;2.85;2.55;;;;;;;16.62;46.13;101813.88;4979717;28;20110;-60
2021/10/28 00:16:18;;;;;;;5.25;2.50;;;;;;;16.58;45.77;101812.47;4978357;28;20027;-60
2021/10/28 00:19:05;;;;;;;5.63;2.90;;;;;;;16.54;45.81;101821.88;4978149;28;20502;-60
2021/10/28 00:21:37;;;;;;;3.70;2.78;;;;;;;16.51;44.61;101817.56;4978666;28;20023;-60
2021/10/28 00:24:10;;;;;;;3.97;2.95;;;;;;;16.47;45.66;101821.53;4979138;28;20019;-60
2021/10/28 00:26:39;;;;;;;2.85;1.92;;;;;;;16.43;45.31;101814.72;4977004;28;20030;-59
2021/10/28 00:29:15;;;;;;;3.95;2.78;;;;;;;16.44;46.18;101816.44;4974122;28;20569;-60
2021/10/28 00:31:48;;;;;;;8.93;2.72;;;;;;;16.42;46.13;101812.16;4974470;28;20041;-59
2021/10/28 00:34:32;;;;;;;;;;;;;;;16.38;44.97;101814.31;4979486;28;20023;-60
2021/10/28 00:36:58;;;;;;;;;;;;;;;16.37;45.70;101811.72;4963260;28;19917;-59
2021/10/28 00:39:32;;;;;;;5.25;1.95;;;;;;;16.32;46.21;101812.16;4977401;28;19914;-60
2021/10/28 00:42:03;;;;;;;4.07;2.72;;;;;;;16.22;45.81;101803.19;4961639;28;20042;-59
2021/10/28 00:44:32;;;;;;;3.55;1.85;;;;;;;16.21;44.89;101813.16;4961423;28;20042;-59
2021/10/28 00:47:08;;;;;;;3.15;1.70;;;;;;;16.18;44.75;101804.47;4977217;28;20050;-59
2021/10/28 00:49:35;;;;;;;4.97;2.83;;;;;;;16.15;45.15;101810.16;4951590;28;20030;-60
2021/10/28 00:52:02;;;;;;;6.43;2.10;;;;;;;16.10;46.01;101801.63;4961989;28;20045;-60
2021/10/28 00:54:30;;;;;;;2.13;1.75;;;;;;;16.04;44.67;101797.63;4961616;28;20023;-59
2021/10/28 00:56:57;;;;;;;3.38;2.55;;;;;;;16.03;46.17;101806.72;4949653;28;20031;-59
2021/10/28 00:59:22;;;;;;;6.65;2.78;;;;;;;15.98;45.50;101798.19;4976814;28;20463;-59
2021/10/28 01:01:59;;;;;;;2.88;2.30;;;;;;;15.98;44.92;101795.50;4962143;28;20062;-59
2021/10/28 01:04:28;;;;;;;4.78;2.70;;;;;;;15.99;46.34;101804.47;4961700;28;20019;-59
2021/10/28 01:06:58;;;;;;;5.20;2.40;;;;;;;15.96;46.18;101799.34;4959379;28;20027;-59
2021/10/28 01:09:31;;;;;;;2.50;1.98;;;;;;;15.92;45.44;101790.63;4943906;28;20030;-59
2021/10/28 01:11:56;;;;;;;3.70;2.40;;;;;;;15.90;45.27;101789.06;4947085;28;20112;-59
2021/10/28 01:14:36;;;;;;;3.25;2.20;;;;;;;15.90;44.70;101799.88;4979047;28;20383;-59
2021/10/28 01:17:02;;;;;;;2.75;1.83;;;;;;;15.87;45.40;101781.25;4945788;28;20034;-59
2021/10/28 01:19:29;;;;;;;3.75;2.40;;;;;;;15.85;45.39;101791.34;4931747;28;20035;-60
2021/10/28 01:21:58;;;;;;;3.70;2.30;;;;;;;15.83;45.12;101788.78;4945397;28;20023;-60
2021/10/28 01:24:24;;;;;;;4.18;2.22;;;;;;;15.82;44.90;101780.81;4958565;28;20015;-60
2021/10/28 01:27:02;;;;;;;4.10;2.40;;;;;;;15.79;44.71;101776.56;4943516;28;20394;-60
2021/10/28 01:29:28;;;;;;;3.78;2.40;;;;;;;15.73;45.56;101767.16;4964141;28;20458;-59
2021/10/28 01:32:04;;;;;;;4.55;2.30;;;;;;;15.77;46.57;101772.28;4950055;28;20031;-60
2021/10/28 01:34:32;;;;;;;3.10;2.33;;;;;;;15.76;46.21;101775.97;4947037;28;20538;-60
2021/10/28 01:36:59;;;;;;;3.45;2.30;;;;;;;15.71;45.70;101769.16;4976911;28;20026;-58
2021/10/28 01:39:33;;;;;;;3.45;2.28;;;;;;;15.69;44.92;101763.00;4958882;28;20121;-61
2021/10/28 01:41:59;;;;;;;3.53;2.53;;;;;;;15.65;45.81;101763.44;4945800;28;20069;-58
2021/10/28 01:44:27;;;;;;;2.45;1.90;;;;;;;15.63;46.12;101766.25;4959716;28;20018;-58
2021/10/28 01:46:54;;;;;;;2.92;1.60;;;;;;;15.57;45.74;101761.44;4971857;28;20070;-58
2021/10/28 01:49:27;;;;;;;2.80;1.90;;;;;;;15.58;45.13;101760.44;4976765;28;20050;-60
2021/10/28 01:52:05;;;;;;;3.50;1.88;;;;;;;15.56;45.19;101757.03;4958104;28;20069;-59
2021/10/28 01:54:31;;;;;;;6.32;2.42;;;;;;;15.55;45.20;101758.00;4974393;28;20174;-58
2021/10/28 01:56:57;;;;;;;2.60;1.95;;;;;;;15.54;46.46;101764.41;4974735;28;20023;-58
2021/10/28 01:59:22;;;;;;;6.18;3.55;;;;;;;15.56;45.27;101770.53;4973549;28;20030;-58
2021/10/28 02:01:48;;;;;;;3.58;2.17;;;;;;;15.55;45.15;101765.28;4972487;28;20475;-58
2021/10/28 02:04:14;;;;;;;7.22;2.83;;;;;;;15.48;45.24;101759.56;4972324;28;20027;-58
2021/10/28 02:06:39;;;;;;;5.85;3.40;;;;;;;15.51;46.49;101764.69;4972289;28;20034;-58
2021/10/28 02:09:05;;;;;;;5.25;2.92;;;;;;;15.49;46.63;101753.19;4973770;28;20035;-58
2021/10/28 02:11:31;;;;;;;4.90;2.42;;;;;;;15.48;46.26;101747.91;4973721;28;20118;-58
2021/10/28 02:13:59;;;;;;;5.15;2.72;;;;;;;15.45;45.56;101750.84;4973389;28;20019;-59
2021/10/28 02:16:32;;;;;;;2.90;1.75;;;;;;;15.41;46.38;101738.63;4972411;28;20117;-58
2021/10/28 02:18:59;;;;;;;3.92;2.00;;;;;;;15.39;46.58;101737.91;4973430;28;20033;-58
2021/10/28 02:21:26;;;;;;;2.65;1.60;;;;;;;15.35;46.17;101734.63;4975705;28;20018;-58
2021/10/28 02:23:52;;;;;;;4.10;2.20;;;;;;;15.32;46.67;101729.50;4958373;28;20450;-58
2021/10/28 02:26:17;;;;;;;5.38;2.55;;;;;;;15.27;45.44;101723.66;4973400;28;20541;-58
2021/10/28 02:28:43;;;;;;;3.05;2.13;;;;;;;15.27;46.28;101733.63;4973496;28;20027;-58
2021/10/28 02:31:08;;;;;;;4.70;1.48;;;;;;;15.24;46.46;101731.19;4973240;28;20042;-58
2021/10/28 02:33:34;;;;;;;2.58;1.35;;;;;;;15.21;46.15;101721.53;4972704;28;20185;-58
2021/10/28 02:35:59;;;;;;;2.55;1.70;;;;;;;15.18;45.36;101716.41;4973020;28;20068;-58
2021/10/28 02:38:24;;;;;;;3.65;2.30;;;;;;;15.16;46.15;101712.94;4973296;28;20054;-59
2021/10/28 02:40:50;;;;;;;4.97;2.83;;;;;;;15.17;45.84;101714.69;4972398;28;20027;-58
2021/10/28 02:43:15;;;;;;;3.40;2.58;;;;;;;15.16;45.06;101707.56;4972106;28;20034;-58
2021/10/28 02:45:41;;;;;;;4.00;2.50;;;;;;;15.16;46.54;101712.94;4972075;28;20587;-58
2021/10/28 02:48:06;;;;;;;3.97;2.22;;;;;;;15.15;46.79;101716.66;4955764;28;20027;-58
2021/10/28 02:50:31;;;;;;;3.80;2.13;;;;;;;15.14;45.81;101712.25;4974917;28;20077;-58
2021/10/28 02:52:57;;;;;;;3.33;1.75;;;;;;;15.11;45.41;101699.03;4977100;28;20030;-58
2021/10/28 02:55:22;;;;;;;5.85;3.08;;;;;;;15.09;45.80;101703.72;4977274;28;20030;-59
2021/10/28 02:57:48;;;;;;;3.95;2.50;;;;;;;15.09;46.07;101701.00;4959717;28;20105;-58
2021/10/28 03:00:13;;;;;;;7.10;3.30;;;;;;;15.06;46.08;101699.44;4977337;28;20035;-58
2021/10/28 03:02:39;;;;;;;5.18;2.28;;;;;;;15.07;45.26;101697.59;4943466;28;20118;-58
2021/10/28 03:05:06;;;;;;;4.22;2.70;;;;;;;15.05;45.36;101691.47;4976626;28;20406;-58
2021/10/28 03:07:33;;;;;;;1.80;1.50;;;;;;;15.04;45.83;101687.09;4959567;28;20026;-58
2021/10/28 03:09:59;;;;;;;2.40;1.90;;;;;;;14.99;45.69;101689.34;4976130;28;20503;-58
2021/10/28 03:12:24;;;;;;;2.72;1.73;;;;;;;14.96;46.67;101685.03;4976934;28;20038;-58
2021/10/28 03:14:56;;;;;;;3.47;2.25;;;;;;;14.93;46.74;101684.50;4943197;28;20027;-58
2021/10/28 03:28:01;;;;;;;7.05;2.63;;;;;;;14.88;45.81;101686.75;4975742;28;20550;-58
2021/10/28 03:30:27;;;;;;;7.38;3.10;;;;;;;14.88;46.05;101682.19;4977423;28;20523;-58
2021/10/28 03:32:53;;;;;;;5.68;3.65;;;;;;;14.89;45.47;101683.03;4959971;28;20141;-58
2021/10/28 03:35:18;;;;;;;5.00;3.30;;;;;;;14.89;45.59;101674.94;4976908;28;20103;-58
2021/10/28 03:37:50;;;;;;;6.10;3.85;;;;;;;14.89;45.65;101683.03;4959842;28;20427;-58
2021/10/28 03:48:26;;;;;;;6.22;2.88;;;;;;;14.68;45.77;101647.19;4976972;28;20399;-58
2021/10/28 04:19:51;;;;;;;4.38;2.35;;;;;;;14.43;46.72;101635.84;4976331;28;20038;-58
2021/10/28 04:30:21;;;;;;;8.70;3.25;;;;;;;14.43;45.66;101633.16;4976132;28;20121;-58
2021/10/28 04:32:47;;;;;;;5.40;3.25;;;;;;;14.42;46.52;101631.47;4976173;28;20030;-58
2021/10/28 04:35:13;;;;;;;7.22;2.72;;;;;;;14.42;45.39;101625.22;4962206;28;20019;-58
2021/10/28 04:37:39;;;;;;;7.13;3.50;;;;;;;14.39;46.85;101620.09;4975892;28;20027;-58
2021/10/28 04:40:08;;;;;;;5.03;2.83;;;;;;;14.40;46.54;101628.06;4976025;28;20027;-58
2021/10/28 04:42:34;;;;;;;5.03;2.75;;;;;;;14.40;45.51;101628.06;4958323;28;20494;-58
2021/10/28 04:44:59;;;;;;;2.88;2.08;;;;;;;14.38;45.87;101630.00;4958062;28;20121;-58
2021/10/28 04:47:25;;;;;;;3.25;2.20;;;;;;;14.37;45.39;101628.31;4975376;28;20053;-58
2021/10/28 04:49:50;;;;;;;4.25;2.70;;;;;;;14.37;45.29;101628.31;4975773;28;20069;-58
2021/10/28 04:52:16;;;;;;;4.28;2.47;;;;;;;14.34;46.37;101620.50;4975691;28;20026;-58
2021/10/28 04:54:42;;;;;;;4.32;2.70;;;;;;;14.36;46.42;101623.91;4957911;28;20399;-58
2021/10/28 04:57:07;;;;;;;5.60;3.17;;;;;;;14.32;46.19;101614.38;4957833;28;20039;-58
2021/10/28 04:59:33;;;;;;;5.65;2.60;;;;;;;14.37;46.00;101622.94;4975387;28;20435;-58
2021/10/28 05:01:58;;;;;;;3.83;2.42;;;;;;;14.37;45.75;101624.78;4975389;28;20034;-58
2021/10/28 05:04:24;;;;;;;4.75;3.13;;;;;;;14.36;45.74;101621.22;4974798;28;20118;-58
2021/10/28 05:06:50;;;;;;;6.10;2.80;;;;;;;14.34;46.53;101620.50;4975398;28;20105;-58
2021/10/28 05:09:23;;;;;;;4.28;2.75;;;;;;;14.33;46.56;101621.47;4975165;28;20039;-58
2021/10/28 05:11:49;;;;;;;5.93;2.85;;;;;;;14.32;46.68;101613.53;4975086;28;20066;-58
2021/10/28 05:14:14;;;;;;;6.22;3.03;;;;;;;14.29;45.69;101617.28;4974591;28;20106;-58
2021/10/28 05:16:40;;;;;;;6.47;3.67;;;;;;;14.31;46.91;101628.81;4975264;28;20038;-58
2021/10/28 05:19:06;;;;;;;4.32;2.55;;;;;;;14.31;46.16;101627.97;4974863;28;20117;-58
2021/10/28 05:21:31;;;;;;;4.47;2.63;;;;;;;14.29;46.06;101624.56;4975002;28;20038;-59
2021/10/28 05:23:57;;;;;;;5.03;2.20;;;;;;;14.24;45.63;101624.94;4958087;28;20443;-58
2021/10/28 05:26:22;;;;;;;4.15;2.65;;;;;;;14.23;46.40;101619.69;4975680;28;20031;-58
2021/10/28 05:28:48;;;;;;;6.55;2.95;;;;;;;14.24;46.26;101616.00;4957450;28;20035;-58
2021/10/28 05:31:13;;;;;;;6.15;2.85;;;;;;;14.19;45.97;101602.94;4974661;28;20039;-58
2021/10/28 05:33:39;;;;;;;6.25;3.38;;;;;;;14.21;46.86;101611.72;4974407;28;20034;-58
2021/10/28 05:36:05;;;;;;;5.75;3.03;;;;;;;14.21;46.57;101609.03;4976540;28;20074;-58
2021/10/28 05:38:30;;;;;;;7.07;3.50;;;;;;;14.19;46.78;101602.94;4974419;28;20031;-58
2021/10/28 05:40:55;;;;;;;6.25;3.30;;;;;;;14.14;46.33;101586.31;4974581;28;20034;-58
2021/10/28 05:43:21;;;;;;;7.53;3.80;;;;;;;14.21;47.01;101595.56;4974288;28;20030;-58
2021/10/28 05:45:48;;;;;;;8.43;3.88;;;;;;;14.19;45.67;101589.47;4956652;28;20055;-58
2021/10/28 05:48:13;;;;;;;5.78;3.10;;;;;;;14.22;46.30;101586.50;4976778;28;20027;-58
2021/10/28 05:50:41;;;;;;;5.53;3.53;;;;;;;14.18;45.76;101574.25;4974301;28;20047;-58
2021/10/28 05:53:08;;;;;;;5.68;3.00;;;;;;;14.21;46.73;101574.00;4972797;28;20035;-58
2021/10/28 05:55:33;;;;;;;6.38;3.53;;;;;;;14.21;45.74;101570.47;4974613;28;20361;-58
2021/10/28 05:57:59;;;;;;;6.50;4.03;;;;;;;14.20;46.82;101574.16;4973017;28;20077;-58
2021/10/28 06:00:25;;;;;;;5.32;3.25;;;;;;;14.22;45.63;101574.84;4972951;28;20038;-59
2021/10/28 06:02:50;;;;;;;6.07;4.15;;;;;;;14.25;46.76;101569.19;4972977;28;20030;-58
2021/10/28 06:05:15;;;;;;;5.40;3.13;;;;;;;14.25;46.15;101570.06;4974117;28;20113;-59
2021/10/28 06:07:42;;;;;;;6.68;3.20;;;;;;;14.24;46.79;101562.94;4973037;28;20035;-59
2021/10/28 06:10:08;;;;;;;5.22;3.15;;;;;;;14.30;45.84;101569.66;4955287;28;20027;-59
2021/10/28 06:12:39;;;;;;;7.18;2.92;;;;;;;14.26;46.78;101565.53;4974423;28;20360;-59
2021/10/28 06:15:07;;;;;;;9.35;3.30;;;;;;;14.30;46.55;101569.66;4972626;28;20042;-58
2021/10/28 06:17:36;;;;;;;5.05;3.03;;;;;;;14.26;46.25;101566.41;4974454;28;20033;-59
2021/10/28 06:20:03;;;;;;;5.03;2.05;;;;;;;14.22;45.71;101554.16;4972937;28;20034;-58
2021/10/28 06:22:29;;;;;;;4.38;2.45;;;;;;;14.21;47.08;101559.69;4974018;28;20034;-58
2021/10/28 06:24:55;;;;;;;4.50;2.25;;;;;;;14.17;45.63;101561.81;4973041;28;20023;-58
2021/10/28 06:27:21;;;;;;;7.68;3.00;;;;;;;14.15;46.82;101568.31;4973985;28;20122;-59
2021/10/28 06:29:47;;;;;;;10.82;3.40;;;;;;;14.11;46.84;101562.34;4974161;28;20106;-58
2021/10/28 06:32:15;;;;;;;5.00;2.80;;;;;;;14.09;45.95;101558.94;4972929;28;20031;-58
2021/10/28 06:34:43;;;;;;;6.35;2.88;;;;;;;14.10;46.76;101563.31;4973224;28;20022;-58
2021/10/28 06:37:10;;;;;;;7.57;3.17;;;;;;;14.10;46.38;101562.47;4974668;28;20117;-58
2021/10/28 06:39:36;;;;;;;6.60;2.88;;;;;;;14.10;45.90;101557.91;4974017;28;20063;-58
2021/10/28 06:42:03;;;;;;;4.35;2.60;;;;;;;14.11;46.40;101561.47;4973744;28;20102;-58
2021/10/28 06:44:29;;;;;;;9.88;3.47;;;;;;;14.14;46.76;101559.38;4973796;28;20058;-59
2021/10/28 06:46:54;;;;;;;7.07;2.92;;;;;;;14.15;46.17;101554.84;4974159;28;20096;-58
2021/10/28 06:49:20;;;;;;;4.75;3.47;;;;;;;14.20;46.67;101566.94;4973925;28;20023;-59
2021/10/28 06:51:46;;;;;;;4.78;2.83;;;;;;;14.25;47.02;101561.97;4974471;28;20034;-58
2021/10/28 06:54:35;;;;;;;4.88;2.88;;;;;;;14.31;46.60;101558.75;4973769;28;20030;-59
2021/10/28 06:57:31;;;;;;;11.07;3.60;;;;;;;14.44;46.66;101563.94;4972313;28;20042;-58
2021/10/28 07:02:44;;;;;;;9.02;3.53;;;;;;;14.62;46.14;101556.06;4972435;28;20037;-58
2021/10/28 07:05:11;;;;;;;10.40;3.28;;;;;;;14.70;45.76;101559.78;4940853;28;20061;-59
2021/10/28 07:07:36;;;;;;;5.53;3.00;;;;;;;14.80;46.63;101559.78;4956737;28;20061;-59
2021/10/28 07:10:09;;;;;;;10.23;3.88;;;;;;;14.91;46.61;101559.66;4958064;28;20050;-59
2021/10/28 07:13:06;;;;;;;7.05;3.22;;;;;;;15.01;46.30;101553.31;4973612;28;20479;-59
2021/10/28 07:39:26;;;;;;;8.57;3.33;;;;;;;16.19;45.60;101552.09;4977332;28;20037;-59
2021/10/28 08:29:35;;;;;;;9.18;3.47;;;;;;;19.65;44.67;101512.16;4963228;28;20090;-58
2021/10/28 08:32:03;;;;;;;4.63;3.10;;;;;;;19.90;44.68;101511.09;5253035;23;20109;-60
2021/10/28 08:34:31;;;;;;;5.75;3.20;;;;;;;20.17;44.66;101512.53;4992531;28;20494;-59
2021/10/28 08:37:07;;;;;;;7.57;3.50;;;;;;;20.40;44.12;101510.81;4982036;28;20105;-60
2021/10/28 08:39:36;;;;;;;8.55;4.18;;;;;;;20.63;44.53;101494.53;4994724;28;20022;-60
2021/10/28 08:42:07;;;;;;;8.18;3.83;;;;;;;20.87;43.87;101488.94;4994050;28;20029;-60
2021/10/28 08:44:34;;;;;;;5.97;3.38;;;;;;;21.12;43.43;101493.22;4995642;28;20084;-60
2021/10/28 08:47:00;;;;;;;5.57;3.25;;;;;;;21.36;43.82;101487.56;4988243;28;20025;-60
2021/10/28 08:49:32;;;;;;;6.88;3.80;;;;;;;21.63;43.70;101499.78;4994727;28;20052;-60
2021/10/28 08:58:32;;;;;;;4.20;2.65;;;;;;;22.43;42.66;101465.31;4994687;28;20029;-60
2021/10/28 09:28:37;;;;;;;6.53;3.95;;;;;;;27.09;38.38;101432.03;4994294;28;20053;-61
2021/10/28 09:31:08;;;;;;;7.03;4.00;;;;;;;27.38;38.59;101425.03;4993221;28;20023;-59
2021/10/28 09:48:11;;;;;;;4.18;2.80;;;;;;;29.61;35.78;101405.59;5013023;28;20033;-58
2021/10/28 09:50:35;;;;;;;3.60;2.20;;;;;;;30.02;36.07;101404.63;5009292;28;20478;-59
2021/10/28 09:53:10;;;;;;;4.90;2.10;;;;;;;30.28;34.59;101401.31;5012948;28;20029;-58
2021/10/28 09:58:31;;;;;;;3.58;2.40;;;;;;;30.88;34.00;101395.28;5011045;28;20029;-59
2021/10/28 10:00:57;;;;;;;2.90;2.07;;;;;;;31.08;33.94;101381.84;5012884;28;20096;-59
2021/10/28 10:03:34;;;;;;;4.30;2.55;;;;;;;31.26;33.73;101386.31;5010714;28;20493;-59
2021/10/28 10:06:04;;;;;;;3.67;2.53;;;;;;;31.54;33.58;101378.78;5012126;28;20018;-60
2021/10/28 10:08:32;;;;;;;6.45;1.85;;;;;;;31.79;33.02;101386.63;4984827;28;20030;-58
2021/10/28 10:10:58;;;;;;;4.00;2.20;;;;;;;31.93;32.68;101384.31;5010749;28;20025;-57
2021/10/28 10:13:25;;;;;;;2.65;2.00;;;;;;;32.02;32.37;101391.13;4997173;28;20085;-59
2021/10/28 10:16:04;;;;;;;3.33;2.13;;;;;;;32.11;32.30;101389.56;5012498;28;20105;-59
2021/10/28 10:18:32;;;;;;;5.72;2.30;;;;;;;32.25;31.88;101390.84;5012668;28;20052;-57
2021/10/28 10:21:13;;;;;;;5.65;2.45;;;;;;;32.38;31.23;101384.91;4994941;28;20064;-58
2021/10/28 10:24:15;;;;;;;4.45;2.35;;;;;;;32.52;31.07;101379.81;4982697;28;20036;-57
2021/10/28 11:05:29;;;;;;;3.00;2.10;;;;;;;33.63;29.49;101353.06;4992336;28;20502;-59
2021/10/28 11:31:20;;;;;;;5.78;2.80;;;;;;;33.43;29.39;101325.94;4980229;28;20034;-59
2021/10/28 12:27:49;;;;;;;4.05;2.80;;;;;;;32.41;28.57;101255.94;5016633;28;20025;-59
2021/10/28 12:45:04;;;;;;;4.20;2.83;;;;;;;31.49;29.55;101225.50;5023338;28;20021;-58
2021/10/28 12:47:50;;;;;;;5.13;3.13;;;;;;;31.44;29.60;101222.59;5012222;28;20026;-58
2021/10/28 13:48:29;;;;;;;2.60;1.45;;;;;;;30.26;30.55;101131.72;4999357;28;20455;-59
2021/10/28 13:51:06;;;;;;;2.08;1.40;;;;;;;30.19;30.72;101128.25;5018583;28;20453;-59
2021/10/28 14:23:31;;;;;;;3.30;1.23;;;;;;;27.84;32.00;101116.16;5020982;28;20045;-59
2021/10/28 14:34:46;;;;;;;3.20;1.63;;;;;;;27.27;31.85;101113.97;4979707;28;20410;-58
2021/10/28 14:58:35;;;;;;;2.50;1.58;;;;;;;27.02;31.85;101114.94;4992652;28;20038;-59
2021/10/28 14:58:45;;;;;;;4.00;1.38;;;;;;;26.94;32.83;101106.97;4992534;28;20026;-59
2021/10/28 14:59:41;;;;;;;2.60;1.60;;;;;;;26.38;33.26;101098.06;5000394;28;20100;-59
2021/10/28 15:38:57;;;;;;;5.03;1.70;;;;;;;25.24;35.05;101069.88;4996162;28;20033;-59
2021/10/28 16:21:55;;;;;;;5.90;3.28;;;;;;;24.17;36.75;101053.16;4994943;28;20041;-63
2021/10/28 16:24:29;;;;;;;2.55;2.13;;;;;;;24.09;36.20;101047.84;4994921;28;20780;-60
2021/10/28 16:26:55;;;;;;;2.38;1.70;;;;;;;23.99;36.61;101036.47;4994966;28;20069;-62
2021/10/28 16:29:22;;;;;;;3.88;1.80;;;;;;;23.94;36.46;101042.59;4994767;28;20037;-62
2021/10/28 16:31:47;;;;;;;1.90;1.70;;;;;;;23.82;37.00;101037.94;4995460;28;20058;-62
2021/10/28 16:34:14;;;;;;;3.28;2.13;;;;;;;23.72;36.95;101043.84;5014311;28;20058;-62
2021/10/28 16:36:40;;;;;;;3.20;1.75;;;;;;;23.65;36.97;101057.53;5014502;28;20029;-62
2021/10/28 16:39:11;;;;;;;5.85;2.45;;;;;;;23.55;37.13;101057.09;5014471;28;20022;-62
2021/10/28 16:41:38;;;;;;;2.47;1.70;;;;;;;23.45;37.70;101051.16;5014571;28;20490;-62
2021/10/28 16:44:04;;;;;;;2.92;1.88;;;;;;;23.31;37.37;101037.66;5003668;28;20029;-62
2021/10/28 16:46:30;;;;;;;3.22;1.98;;;;;;;23.25;37.24;101050.28;5014192;28;20390;-62
2021/10/28 16:48:55;;;;;;;4.03;2.05;;;;;;;23.17;37.22;101053.19;5014132;28;20029;-62
2021/10/28 16:51:21;;;;;;;5.32;2.10;;;;;;;23.06;37.54;101051.88;5014070;28;20026;-62
2021/10/28 16:53:47;;;;;;;3.13;2.00;;;;;;;23.00;37.24;101052.69;5014249;28;20053;-62
2021/10/28 16:56:14;;;;;;;6.55;2.20;;;;;;;22.93;37.48;101053.72;5002817;28;20033;-61
2021/10/28 16:58:41;;;;;;;3.25;2.17;;;;;;;22.82;38.13;101048.84;5013990;28;20021;-62
2021/10/28 17:01:08;;;;;;;2.80;1.98;;;;;;;22.77;38.17;101045.88;5013766;28;20176;-62
2021/10/28 17:03:33;;;;;;;6.80;2.40;;;;;;;22.69;37.91;101044.19;5013743;28;20021;-62
2021/10/28 17:05:58;;;;;;;3.45;2.00;;;;;;;22.59;38.31;101036.31;5000391;28;20378;-62
2021/10/28 17:08:24;;;;;;;3.75;2.70;;;;;;;22.58;38.09;101040.06;5013010;28;20083;-62
2021/10/28 17:10:49;;;;;;;4.78;2.35;;;;;;;22.52;38.75;101038.19;5014080;28;20042;-62
2021/10/28 17:13:16;;;;;;;7.95;2.60;;;;;;;22.48;38.40;101039.59;5000110;28;20517;-62
2021/10/28 17:15:41;;;;;;;5.90;3.03;;;;;;;22.48;38.05;101034.16;5013824;28;20453;-62
2021/10/28 17:18:07;;;;;;;3.85;2.35;;;;;;;22.47;38.25;101045.28;5013506;28;20030;-62
2021/10/28 17:20:35;;;;;;;3.25;2.35;;;;;;;22.45;38.68;101044.63;5011586;28;20104;-62
2021/10/28 17:23:01;;;;;;;4.00;2.92;;;;;;;22.36;38.51;101030.28;5013515;28;20057;-62
2021/10/28 17:25:27;;;;;;;4.82;2.65;;;;;;;22.32;38.72;101026.28;5011696;28;20078;-62
2021/10/28 17:27:52;;;;;;;3.58;2.30;;;;;;;22.30;38.89;101033.00;5011848;28;20463;-62
2021/10/28 17:30:18;;;;;;;4.63;3.05;;;;;;;22.32;39.19;101037.22;5004022;28;20548;-62
2021/10/28 17:32:45;;;;;;;6.78;3.13;;;;;;;22.29;38.27;101037.59;5018199;28;20073;-62
2021/10/28 17:35:11;;;;;;;3.83;2.28;;;;;;;22.26;38.61;101037.16;5021441;28;20569;-62
2021/10/28 17:37:37;;;;;;;3.13;2.33;;;;;;;22.24;39.24;101034.63;5013679;28;20478;-62
2021/10/28 17:40:04;;;;;;;3.97;2.65;;;;;;;22.21;39.55;101032.31;5017609;28;20018;-62
2021/10/28 17:42:29;;;;;;;3.05;2.25;;;;;;;22.17;38.75;101035.63;5009465;28;20050;-62
2021/10/28 17:44:59;;;;;;;4.38;2.65;;;;;;;22.13;38.98;101040.66;4997606;28;20056;-62
2021/10/28 17:47:24;;;;;;;4.55;2.75;;;;;;;22.00;39.67;101013.25;5023636;28;20552;-62
2021/10/28 17:49:51;;;;;;;4.90;2.25;;;;;;;22.11;38.74;101028.25;4995528;28;20021;-61
2021/10/28 17:52:18;;;;;;;6.22;2.90;;;;;;;22.05;39.29;101022.53;5015477;28;20148;-61
2021/10/28 17:54:44;;;;;;;4.88;2.90;;;;;;;22.07;38.37;101029.69;5019304;28;20017;-62
2021/10/28 17:57:10;;;;;;;5.15;2.28;;;;;;;22.04;38.51;101026.31;5024330;28;20092;-62
2021/10/28 17:59:35;;;;;;;7.43;3.58;;;;;;;22.02;38.77;101022.09;5014411;28;20084;-62
2021/10/28 18:02:01;;;;;;;6.03;3.15;;;;;;;21.99;38.83;101027.97;5014859;28;20014;-62
2021/10/28 18:04:26;;;;;;;7.25;2.72;;;;;;;21.96;39.55;101031.06;4995183;28;20045;-61
2021/10/28 18:06:52;;;;;;;3.38;2.58;;;;;;;21.92;38.59;101032.50;5014987;28;20104;-62
2021/10/28 18:09:18;;;;;;;6.57;3.40;;;;;;;21.86;39.39;101028.66;5017856;28;20022;-61
2021/10/28 18:11:44;;;;;;;6.53;3.17;;;;;;;21.77;38.77;101015.38;5018841;28;20512;-62
2021/10/28 18:14:15;;;;;;;7.90;3.15;;;;;;;21.77;39.19;101023.56;5008578;28;20017;-62
2021/10/28 18:16:41;;;;;;;6.35;3.30;;;;;;;21.70;39.45;101028.94;5023131;28;20017;-61
2021/10/28 18:19:08;;;;;;;8.23;2.85;;;;;;;21.68;38.31;101031.03;5023560;28;20092;-62
2021/10/28 18:21:37;;;;;;;5.93;2.95;;;;;;;21.66;38.93;101032.25;5000602;28;20529;-61
2021/10/28 18:24:02;;;;;;;8.93;2.88;;;;;;;21.63;39.56;101024.47;5005520;28;20124;-61
2021/10/28 18:26:28;;;;;;;4.75;2.97;;;;;;;21.61;39.43;101029.28;5014897;28;20037;-62
2021/10/28 18:28:55;;;;;;;5.38;2.88;;;;;;;21.54;38.95;101012.84;5015155;28;20482;-61
2021/10/28 18:31:20;;;;;;;6.53;2.95;;;;;;;21.53;39.22;101016.63;5021358;28;20032;-62
2021/10/28 18:33:48;;;;;;;5.35;3.20;;;;;;;21.53;38.85;101015.75;5014385;28;20268;-61
2021/10/28 18:36:13;;;;;;;7.85;3.58;;;;;;;21.48;39.57;101011.75;5009146;28;20068;-61
2021/10/28 18:38:44;;;;;;;7.38;3.53;;;;;;;21.45;38.71;101012.16;4999954;28;20025;-61
2021/10/28 18:41:10;;;;;;;9.15;3.15;;;;;;;21.41;38.79;101008.09;5013758;28;20018;-61
2021/10/28 18:43:35;;;;;;;4.25;2.88;;;;;;;21.30;39.67;100995.00;5013580;28;20455;-61
2021/10/28 18:46:01;;;;;;;5.28;2.92;;;;;;;21.27;39.02;101000.84;5007604;28;20018;-61
2021/10/28 18:48:27;;;;;;;4.55;3.10;;;;;;;21.19;39.07;101003.69;4998304;28;20088;-61
2021/10/28 18:50:53;;;;;;;5.53;3.28;;;;;;;21.12;39.10;101002.81;5014022;28;20041;-61
2021/10/28 18:53:19;;;;;;;7.40;2.85;;;;;;;21.01;39.21;100992.38;4999954;28;20076;-61
2021/10/28 18:55:44;;;;;;;6.65;3.60;;;;;;;20.97;39.59;100982.88;5013522;28;20018;-61
2021/10/28 18:58:09;;;;;;;6.65;2.80;;;;;;;20.90;39.62;100984.72;5013753;28;20099;-61
2021/10/28 19:00:35;;;;;;;3.30;2.75;;;;;;;20.81;39.46;100983.97;5014032;28;20087;-61
2021/10/28 19:03:01;;;;;;;7.05;3.50;;;;;;;20.70;39.43;100986.34;5010190;28;20022;-61
2021/10/28 19:05:27;;;;;;;7.13;3.70;;;;;;;20.65;39.44;100988.81;5011619;28;20022;-61
2021/10/28 19:07:52;;;;;;;6.68;3.33;;;;;;;20.55;39.26;100990.97;5003954;28;20036;-61
2021/10/28 19:10:18;;;;;;;6.35;2.92;;;;;;;20.46;39.55;100979.38;5013806;28;20030;-61
2021/10/28 19:12:44;;;;;;;7.22;3.10;;;;;;;20.35;39.51;100977.13;5014644;28;20480;-62
2021/10/28 19:15:10;;;;;;;5.35;2.90;;;;;;;20.28;39.66;100978.91;5013823;28;20029;-61
2021/10/28 19:17:36;;;;;;;7.10;3.20;;;;;;;20.18;39.27;100976.41;5014039;28;20025;-61
2021/10/28 19:20:04;;;;;;;4.78;2.60;;;;;;;20.10;39.71;100979.22;5014511;28;20018;-61
2021/10/28 19:22:31;;;;;;;5.80;2.72;;;;;;;20.01;39.45;100969.50;5012850;28;20472;-61
2021/10/28 19:25:04;;;;;;;5.10;2.72;;;;;;;19.92;39.90;100970.59;4998564;28;20044;-61
2021/10/28 19:27:29;;;;;;;;;;;;;;;19.85;39.98;100969.66;5015435;28;20034;-61
2021/10/28 19:32:40;;;;;;;5.82;2.80;;;;;;;19.67;39.98;100966.44;4982543;28;20398;-61
2021/10/28 19:35:06;;;;;;;5.43;2.83;;;;;;;19.58;39.71;100964.81;5004181;28;20028;-61
2021/10/28 19:37:39;;;;;;;3.50;2.63;;;;;;;19.48;39.96;100956.09;5021851;28;20022;-61
2021/10/28 19:47:29;;;;;;;5.65;3.00;;;;;;;19.24;39.69;100958.97;5025653;28;20025;-61
2021/10/28 19:49:54;;;;;;;6.22;3.40;;;;;;;19.18;40.75;100961.41;5023756;28;20097;-61
2021/10/28 19:52:20;;;;;;;6.88;4.00;;;;;;;19.15;40.70;100956.31;5025711;28;20025;-62
2021/10/28 19:54:47;;;;;;;4.63;3.05;;;;;;;19.10;41.22;100958.75;5026928;28;20381;-61
2021/10/28 19:57:34;;;;;;;4.03;2.75;;;;;;;19.10;40.19;100957.91;5000465;28;20049;-61
2021/10/28 20:00:08;;;;;;;5.68;2.85;;;;;;;19.05;40.27;100952.16;5023666;28;20026;-61
2021/10/28 20:21:31;;;;;;;9.20;3.70;;;;;;;18.87;40.57;100941.59;5023185;28;20028;-61
2021/10/28 20:23:57;;;;;;;6.38;3.08;;;;;;;18.83;41.26;100934.84;5016538;28;20056;-61
2021/10/28 20:26:23;;;;;;;5.75;3.10;;;;;;;18.78;40.32;100939.97;5026508;28;20061;-61
2021/10/28 20:28:49;;;;;;;8.13;3.05;;;;;;;18.72;40.81;100932.56;5001053;28;20128;-61
2021/10/28 20:31:20;;;;;;;5.15;2.97;;;;;;;18.67;41.28;100934.13;5022527;28;20014;-61
2021/10/28 20:37:06;;;;;;;6.90;3.38;;;;;;;18.52;40.75;100920.47;4959981;28;20054;-61
2021/10/28 20:39:33;;;;;;;10.50;3.20;;;;;;;18.46;40.32;100926.56;4982650;28;20018;-61